Time;durP1;ratioP1;P1;durP2;ratioP2;P2;SDS_P1;SDS_P2;PMS_P1;PMS_P2;Temp;Humidity;BMP_temperature;BMP_pressure;BME280_temperature;BME280_humidity;BME280_pressure;Samples;Min_cycle;Max_cycle;Signal;HPM_P1;HPM_P2
2021/08/07 00:00:58;;;;;;;67.65;33.50;;;;;;;17.82;86.01;99039.06;5094568;28;20126;-79
2021/08/07 00:03:24;;;;;;;72.15;34.20;;;;;;;17.82;86.08;99039.06;5094633;28;20047;-77
2021/08/07 00:05:50;;;;;;;63.10;33.47;;;;;;;17.81;85.97;99034.72;5094647;28;20130;-75
2021/08/07 00:08:16;;;;;;;66.72;33.55;;;;;;;17.79;86.06;99036.72;5094654;28;20039;-77
2021/08/07 00:10:42;;;;;;;63.13;33.78;;;;;;;17.79;85.97;99031.38;5076292;28;20687;-79
2021/08/07 00:13:08;;;;;;;65.10;32.10;;;;;;;17.76;85.98;99023.72;5094359;28;20040;-75
2021/08/07 00:15:34;;;;;;;63.25;33.90;;;;;;;17.73;86.16;99026.75;5094028;28;20084;-76
2021/08/07 00:18:00;;;;;;;61.65;33.47;;;;;;;17.72;86.32;99030.44;5059708;28;20659;-78
2021/08/07 00:20:26;;;;;;;61.13;32.70;;;;;;;17.72;86.31;99031.28;5094718;28;20048;-77
2021/08/07 00:22:52;;;;;;;62.15;34.03;;;;;;;17.71;86.43;99034.16;5094226;28;20487;-75
2021/08/07 00:25:18;;;;;;;64.18;34.22;;;;;;;17.69;86.53;99041.50;5094237;28;20052;-75
2021/08/07 00:27:44;;;;;;;65.28;33.25;;;;;;;17.68;86.53;99047.88;5094294;28;20048;-76
2021/08/07 00:30:10;;;;;;;64.05;35.47;;;;;;;17.65;86.76;99046.38;5094133;28;20084;-78
2021/08/07 00:32:37;;;;;;;66.93;33.25;;;;;;;17.65;86.67;99045.56;5075742;28;20417;-77
2021/08/07 00:35:07;;;;;;;64.75;34.15;;;;;;;17.68;86.48;99048.69;5075943;28;20069;-75
2021/08/07 00:37:33;;;;;;;73.22;34.63;;;;;;;17.69;86.52;99046.84;5093453;28;20036;-76
2021/08/07 00:40:05;;;;;;;67.80;35.42;;;;;;;17.67;86.52;99040.84;5094017;28;20068;-76
2021/08/07 00:42:32;;;;;;;63.55;35.10;;;;;;;17.68;86.55;99046.00;5074649;28;20125;-75
2021/08/07 00:45:06;;;;;;;69.97;34.83;;;;;;;17.65;86.74;99045.56;5075776;28;20090;-75
2021/08/07 00:47:32;;;;;;;75.75;36.08;;;;;;;17.62;86.70;99041.41;5075539;28;20047;-79
2021/08/07 00:50:03;;;;;;;67.88;35.40;;;;;;;17.64;86.58;99036.69;5059955;28;20196;-77
2021/08/07 00:52:31;;;;;;;71.20;35.50;;;;;;;17.66;86.65;99041.84;5075368;28;20481;-77
2021/08/07 00:55:01;;;;;;;72.53;35.47;;;;;;;17.68;86.53;99031.81;5075329;28;20127;-77
2021/08/07 00:57:30;;;;;;;71.05;36.70;;;;;;;17.67;86.36;99033.69;5075550;28;20143;-78
2021/08/07 00:59:56;;;;;;;67.57;34.87;;;;;;;17.67;86.26;99028.31;5075514;28;20052;-78
2021/08/07 01:02:23;;;;;;;80.72;37.28;;;;;;;17.66;86.15;99023.13;5056908;28;20200;-77
2021/08/07 01:05:25;;;;;;;78.80;36.72;;;;;;;17.65;86.45;99019.66;5055390;28;20040;-76
2021/08/07 01:08:02;;;;;;;78.07;36.78;;;;;;;17.61;86.45;99010.31;4993263;28;20116;-76
2021/08/07 01:10:47;;;;;;;84.75;37.13;;;;;;;17.60;86.64;99009.47;5010727;28;20087;-75
2021/08/07 01:13:21;;;;;;;78.40;37.20;;;;;;;17.60;86.58;99011.34;4994332;28;20088;-76
2021/08/07 01:16:07;;;;;;;86.00;37.05;;;;;;;17.61;86.39;99010.31;4978543;28;20060;-77
2021/08/07 01:18:36;;;;;;;89.90;38.55;;;;;;;17.53;86.62;99011.19;4994535;28;20053;-77
2021/08/07 01:21:06;;;;;;;90.22;38.00;;;;;;;17.57;86.65;99003.66;4962512;28;20078;-76
2021/08/07 01:23:51;;;;;;;81.25;37.50;;;;;;;17.61;86.36;99008.47;4994321;28;20081;-76
2021/08/07 01:26:49;;;;;;;86.85;38.22;;;;;;;17.61;86.51;99002.31;4994521;28;20046;-77
2021/08/07 01:29:19;;;;;;;82.75;38.17;;;;;;;17.62;86.45;98996.78;4994728;28;20096;-75
2021/08/07 01:31:52;;;;;;;84.88;37.40;;;;;;;17.63;86.27;99000.25;4979101;28;20107;-76
2021/08/07 01:34:24;;;;;;;74.95;36.28;;;;;;;17.62;86.47;98999.44;4994276;28;20049;-75
2021/08/07 01:36:51;;;;;;;84.45;36.88;;;;;;;17.60;86.39;99009.47;4978129;28;20053;-80
2021/08/07 01:39:28;;;;;;;84.85;37.85;;;;;;;17.59;86.57;99010.50;4993983;28;20046;-75
2021/08/07 01:41:55;;;;;;;79.85;37.53;;;;;;;17.60;86.49;99022.84;5010805;28;20458;-78
2021/08/07 01:44:23;;;;;;;78.18;37.00;;;;;;;17.65;86.28;99013.47;5027855;28;20056;-78
2021/08/07 01:46:57;;;;;;;83.25;37.97;;;;;;;17.63;86.38;99006.47;5054917;28;20071;-77
2021/08/07 01:49:34;;;;;;;77.60;39.10;;;;;;;17.61;86.22;98997.78;5038695;28;20463;-77
2021/08/07 01:52:07;;;;;;;73.05;36.65;;;;;;;17.60;86.45;99001.47;5054685;28;20409;-78
2021/08/07 01:54:47;;;;;;;80.43;38.13;;;;;;;17.63;86.37;99014.47;5022444;28;20051;-76
2021/08/07 01:57:17;;;;;;;83.72;38.63;;;;;;;17.60;86.63;99022.84;5038380;28;20105;-79
2021/08/07 01:59:45;;;;;;;79.78;39.17;;;;;;;17.59;86.54;99017.69;5037807;28;20375;-78
2021/08/07 02:02:13;;;;;;;76.40;38.70;;;;;;;17.58;86.71;99011.53;5041459;28;20044;-77
2021/08/07 02:04:54;;;;;;;71.65;37.58;;;;;;;17.57;86.56;99001.84;5037649;28;20692;-80
2021/08/07 02:07:28;;;;;;;69.80;37.65;;;;;;;17.57;86.81;99006.34;5073257;28;20470;-77
2021/08/07 02:10:00;;;;;;;73.82;37.42;;;;;;;17.55;86.66;99008.38;5042408;28;20067;-76
2021/08/07 02:12:29;;;;;;;79.82;38.13;;;;;;;17.58;86.71;99008.84;5041671;28;20072;-76
2021/08/07 02:15:03;;;;;;;84.38;37.60;;;;;;;17.58;86.53;99019.53;5058688;28;20130;-76
2021/08/07 02:17:48;;;;;;;92.78;38.38;;;;;;;17.61;86.45;99024.50;5059848;28;20047;-78
2021/08/07 02:20:15;;;;;;;;;;;;;;;17.62;86.39;99039.56;5042062;28;20087;-78
2021/08/07 02:22:43;;;;;;;90.60;36.90;;;;;;;17.62;86.58;99031.53;5074029;28;20027;-76
2021/08/07 02:25:12;;;;;;;74.10;36.95;;;;;;;17.60;86.36;99035.41;5057070;28;20059;-77
2021/08/07 02:27:50;;;;;;;77.35;38.33;;;;;;;17.61;86.47;99029.88;5042346;28;20412;-77
2021/08/07 02:30:20;;;;;;;81.90;38.55;;;;;;;17.61;86.50;99019.16;5074103;28;20453;-77
2021/08/07 02:32:49;;;;;;;84.60;38.80;;;;;;;17.63;86.43;99025.19;5092093;28;20127;-77
2021/08/07 02:35:18;;;;;;;81.63;37.90;;;;;;;17.63;86.22;99014.47;5040892;28;20040;-81
2021/08/07 02:37:45;;;;;;;83.25;38.65;;;;;;;17.65;86.27;99013.47;5040263;28;20040;-79
2021/08/07 02:40:13;;;;;;;70.88;37.63;;;;;;;17.64;86.16;99015.31;5057174;28;20044;-77
2021/08/07 02:42:47;;;;;;;76.65;38.38;;;;;;;17.64;86.21;99017.97;5058362;28;20036;-75
2021/08/07 02:45:15;;;;;;;74.07;38.10;;;;;;;17.65;86.19;99026.84;5057632;28;20047;-77
2021/08/07 02:47:43;;;;;;;69.88;36.58;;;;;;;17.66;86.16;99028.47;5057182;28;20179;-77
2021/08/07 02:50:10;;;;;;;69.55;37.25;;;;;;;17.66;86.33;99015.97;5056945;28;20055;-76
2021/08/07 02:52:36;;;;;;;69.15;35.72;;;;;;;17.66;86.34;99009.75;5073598;28;20139;-76
2021/08/07 02:55:06;;;;;;;70.60;37.33;;;;;;;17.65;86.27;98989.41;5073518;28;20044;-76
2021/08/07 02:57:32;;;;;;;66.00;37.38;;;;;;;17.65;86.33;98968.00;5073577;28;20051;-77
2021/08/07 02:59:59;;;;;;;68.18;37.17;;;;;;;17.63;86.29;98969.03;5057167;28;20048;-76
2021/08/07 03:02:25;;;;;;;68.22;36.40;;;;;;;17.65;86.30;98976.03;5057058;28;20386;-76
2021/08/07 03:04:52;;;;;;;65.28;37.58;;;;;;;17.63;86.29;98978.88;5073739;28;20109;-76
2021/08/07 03:07:21;;;;;;;66.10;37.10;;;;;;;17.66;86.30;98991.91;5076829;28;20059;-78
2021/08/07 03:09:47;;;;;;;68.32;35.35;;;;;;;17.72;86.38;99003.69;5077774;28;20052;-81
2021/08/07 03:12:15;;;;;;;;;;;;;;;17.79;86.20;99020.69;5077895;28;20048;-78
2021/08/07 03:14:43;;;;;;;65.63;36.05;;;;;;;17.84;86.05;99018.28;5060666;28;20010;-78
2021/08/07 03:17:09;;;;;;;;;;;;;;;17.92;85.68;99026.25;5077789;28;20072;-77
2021/08/07 03:19:39;;;;;;;59.28;34.30;;;;;;;17.98;85.39;99021.22;5077157;28;19920;-80
2021/08/07 03:22:06;;;;;;;68.07;36.17;;;;;;;18.02;85.00;99018.00;5077346;28;20511;-77
2021/08/07 03:24:37;;;;;;;65.53;35.65;;;;;;;18.02;84.83;99023.34;5077454;28;20571;-80
2021/08/07 03:27:05;;;;;;;66.95;34.55;;;;;;;17.98;84.72;99021.22;5077161;28;20405;-79
2021/08/07 03:29:31;;;;;;;68.25;33.65;;;;;;;18.02;84.90;99019.81;5060349;28;20055;-77
2021/08/07 03:32:04;;;;;;;67.75;34.17;;;;;;;18.05;84.66;99014.13;5077266;28;20131;-75
2021/08/07 03:34:38;;;;;;;67.65;33.78;;;;;;;18.13;84.43;99010.53;5061549;28;20050;-77
2021/08/07 03:37:04;;;;;;;73.10;31.98;;;;;;;18.15;83.89;99003.97;5077472;28;20040;-77
2021/08/07 03:39:33;;;;;;;73.00;34.63;;;;;;;18.20;83.80;99006.91;5076989;28;20039;-79
2021/08/07 03:41:59;;;;;;;67.15;32.65;;;;;;;18.28;83.58;99003.34;5077028;28;20047;-77
2021/08/07 03:44:25;;;;;;;66.15;32.15;;;;;;;18.32;83.54;99009.13;5060302;28;20507;-76
2021/08/07 03:46:52;;;;;;;70.50;34.63;;;;;;;18.43;83.20;99012.19;5077281;28;20040;-77
2021/08/07 03:49:19;;;;;;;67.90;31.38;;;;;;;18.62;82.28;99017.13;5076826;28;20135;-77
2021/08/07 03:51:47;;;;;;;62.80;30.90;;;;;;;18.87;81.19;99007.75;5076989;28;20044;-78
2021/08/07 03:54:15;;;;;;;53.10;29.48;;;;;;;19.05;80.37;99019.94;5076776;28;20036;-78
2021/08/07 03:56:43;;;;;;;56.47;29.25;;;;;;;19.04;79.97;99008.41;5060032;28;20048;-77
2021/08/07 03:59:09;;;;;;;55.55;29.65;;;;;;;19.06;79.95;99008.22;5060135;28;20051;-80
2021/08/07 04:01:36;;;;;;;;;;;;;;;19.09;79.57;99005.16;5078046;28;20067;-75
2021/08/07 04:04:07;;;;;;;55.03;27.55;;;;;;;19.14;79.37;99002.72;5076672;28;19920;-78
2021/08/07 04:06:40;;;;;;;52.85;28.58;;;;;;;19.27;78.82;99003.88;5076607;28;20489;-77
2021/08/07 04:09:13;;;;;;;57.05;26.92;;;;;;;19.37;78.16;99001.72;5061466;28;20080;-82
2021/08/07 04:11:40;;;;;;;50.33;27.42;;;;;;;19.39;78.10;99007.72;5044190;28;20058;-81
2021/08/07 04:14:07;;;;;;;59.40;27.85;;;;;;;19.45;78.04;99006.09;5027011;28;20052;-75
2021/08/07 04:16:34;;;;;;;48.95;25.60;;;;;;;19.52;77.34;99020.41;5076058;28;20044;-76
2021/08/07 04:19:08;;;;;;;51.90;25.40;;;;;;;19.71;76.40;99013.53;5072878;28;20047;-74
2021/08/07 04:21:34;;;;;;;48.97;26.13;;;;;;;19.94;75.68;99018.72;5074875;28;20036;-74
2021/08/07 04:24:01;;;;;;;43.33;23.73;;;;;;;20.14;74.52;99018.84;5074534;28;20036;-73
2021/08/07 04:26:29;;;;;;;36.17;23.17;;;;;;;20.27;73.71;99015.41;5073388;28;20090;-75
2021/08/07 04:28:55;;;;;;;39.03;24.60;;;;;;;20.26;73.77;99013.75;5092754;28;20068;-74
2021/08/07 04:31:21;;;;;;;43.45;23.85;;;;;;;20.21;74.24;99024.25;5074726;28;20036;-75
2021/08/07 04:33:48;;;;;;;40.77;24.00;;;;;;;20.18;74.11;99020.09;5074667;28;20039;-77
2021/08/07 04:36:14;;;;;;;37.88;23.15;;;;;;;20.19;74.12;99021.75;5074606;28;20127;-74
2021/08/07 04:38:40;;;;;;;40.95;23.67;;;;;;;20.17;73.98;99022.97;5074148;28;20047;-73
2021/08/07 04:41:07;;;;;;;37.72;23.20;;;;;;;20.33;73.25;99021.84;5073975;28;20044;-73
2021/08/07 04:43:36;;;;;;;41.58;23.60;;;;;;;20.56;72.85;99037.69;5073434;28;20036;-77
2021/08/07 04:46:03;;;;;;;51.35;23.15;;;;;;;20.71;71.81;99034.88;5074453;28;20087;-75
2021/08/07 04:48:29;;;;;;;38.35;22.08;;;;;;;20.95;71.03;99030.81;5073898;28;20515;-73
2021/08/07 04:51:13;;;;;;;33.38;21.90;;;;;;;21.67;69.09;99041.13;5071721;28;20044;-74
2021/08/07 04:53:42;;;;;;;36.53;19.95;;;;;;;22.80;65.06;99020.41;5073786;28;20032;-75
2021/08/07 04:56:13;;;;;;;33.15;20.83;;;;;;;23.79;61.72;99036.19;5073939;28;20032;-75
2021/08/07 04:58:39;;;;;;;38.13;19.95;;;;;;;23.63;61.14;99028.63;5073908;28;20469;-76
2021/08/07 05:01:05;;;;;;;36.75;20.27;;;;;;;23.23;61.84;99018.97;5071093;28;20042;-75
2021/08/07 05:03:33;;;;;;;31.23;20.42;;;;;;;22.83;62.85;99029.91;5056398;28;20040;-77
2021/08/07 05:06:00;;;;;;;32.90;20.15;;;;;;;22.46;64.65;99031.31;5071410;28;20079;-76
2021/08/07 05:08:27;;;;;;;38.03;20.08;;;;;;;22.05;65.59;99039.66;5071108;28;20093;-75
2021/08/07 05:10:58;;;;;;;31.45;19.77;;;;;;;22.04;66.18;99027.22;5072492;28;20491;-74
2021/08/07 05:13:25;;;;;;;33.53;21.00;;;;;;;22.33;65.34;99025.09;5069917;28;20511;-74
2021/08/07 05:15:51;;;;;;;35.28;21.08;;;;;;;23.08;63.38;99052.41;5073771;28;20047;-75
2021/08/07 05:18:18;;;;;;;38.13;20.65;;;;;;;23.97;60.49;99021.13;5073674;28;20448;-77
2021/08/07 05:20:43;;;;;;;31.08;20.27;;;;;;;24.59;58.59;99014.84;5073019;28;20048;-77
2021/08/07 05:23:10;;;;;;;33.28;19.58;;;;;;;24.86;56.77;99001.81;5090930;28;20070;-77
2021/08/07 05:25:37;;;;;;;29.30;20.15;;;;;;;24.24;59.18;99010.88;5073975;28;20079;-76
2021/08/07 05:28:04;;;;;;;27.15;19.67;;;;;;;23.79;59.83;99024.56;5074272;28;20036;-76
2021/08/07 05:30:32;;;;;;;40.00;21.35;;;;;;;23.42;61.27;99026.09;5073276;28;20386;-76
2021/08/07 05:33:00;;;;;;;33.50;20.10;;;;;;;23.12;61.83;99006.16;5072702;28;20071;-76
2021/08/07 05:35:25;;;;;;;32.03;21.15;;;;;;;22.98;62.74;99008.91;5073119;28;20055;-76
2021/08/07 05:37:53;;;;;;;36.38;19.85;;;;;;;23.20;62.46;99014.00;5074203;28;20119;-78
2021/08/07 05:40:19;;;;;;;31.45;20.63;;;;;;;24.26;59.91;99010.63;5072587;28;20557;-74
2021/08/07 05:42:48;;;;;;;38.45;19.95;;;;;;;24.31;58.88;99000.81;5073624;28;20044;-78
2021/08/07 05:45:15;;;;;;;41.63;20.13;;;;;;;24.28;59.33;98987.75;5075117;28;20113;-75
2021/08/07 05:47:42;;;;;;;39.13;19.80;;;;;;;24.34;58.56;98984.13;5074367;28;20047;-75
2021/08/07 05:50:09;;;;;;;31.63;20.17;;;;;;;24.15;59.29;98987.88;5072442;28;20036;-77
2021/08/07 05:52:35;;;;;;;38.40;19.10;;;;;;;23.93;59.74;98980.22;5066768;28;20433;-79
2021/08/07 05:55:03;;;;;;;36.45;20.08;;;;;;;23.85;59.80;98977.75;5073854;28;20039;-78
2021/08/07 05:57:29;;;;;;;33.28;20.10;;;;;;;23.82;60.02;98984.44;5073522;28;20052;-77
2021/08/07 05:59:56;;;;;;;35.03;19.35;;;;;;;25.76;55.29;98996.56;5073994;28;20044;-74
2021/08/07 06:02:22;;;;;;;31.63;18.52;;;;;;;25.97;53.68;98987.84;5072456;28;20638;-78
2021/08/07 06:04:51;;;;;;;29.55;17.65;;;;;;;26.22;53.85;98994.06;5072884;28;20040;-77
2021/08/07 06:07:17;;;;;;;30.07;18.13;;;;;;;27.72;50.02;98984.13;5074091;28;20051;-76
2021/08/07 06:09:44;;;;;;;31.70;17.58;;;;;;;29.08;46.45;98980.97;5072015;28;20610;-76
2021/08/07 06:12:11;;;;;;;32.70;17.55;;;;;;;29.87;44.35;98975.91;5073781;28;20075;-77
2021/08/07 06:14:37;;;;;;;30.80;17.58;;;;;;;29.56;44.15;98980.31;5073311;28;20059;-78
2021/08/07 06:17:03;;;;;;;41.78;17.45;;;;;;;28.47;47.31;98978.38;5074573;28;20047;-80
2021/08/07 06:19:29;;;;;;;26.92;16.40;;;;;;;28.30;47.88;98983.88;5073301;28;20051;-79
2021/08/07 06:21:56;;;;;;;25.92;16.08;;;;;;;28.93;45.49;98975.38;5073657;28;20504;-80
2021/08/07 06:24:22;;;;;;;24.70;13.15;;;;;;;28.30;45.22;98982.00;5073292;28;20042;-78
2021/08/07 06:26:48;;;;;;;22.05;13.55;;;;;;;27.79;46.98;98979.34;5055041;28;20040;-76
2021/08/07 06:29:14;;;;;;;23.98;13.00;;;;;;;27.86;46.87;98971.84;5072372;28;20079;-79
2021/08/07 06:31:40;;;;;;;22.80;13.00;;;;;;;27.27;47.73;98983.13;5072684;28;20060;-78
2021/08/07 06:34:07;;;;;;;23.50;13.00;;;;;;;27.71;47.40;98979.78;5074052;28;20048;-83
2021/08/07 06:36:35;;;;;;;30.30;13.35;;;;;;;27.26;48.55;98976.84;5073988;28;20051;-79
2021/08/07 06:39:04;;;;;;;25.42;12.80;;;;;;;26.40;50.18;98976.84;5073775;28;20131;-89
2021/08/07 06:41:30;;;;;;;28.50;13.50;;;;;;;25.62;52.40;98979.69;5039041;28;20051;-75
2021/08/07 06:44:19;;;;;;;24.00;12.88;;;;;;;25.46;53.08;98975.78;5086322;28;20044;-75
2021/08/07 06:46:47;;;;;;;21.27;12.15;;;;;;;25.28;53.79;98973.97;5091712;28;20605;-76
2021/08/07 06:49:13;;;;;;;20.58;12.30;;;;;;;25.14;54.28;98978.75;5072790;28;20039;-81
2021/08/07 06:51:39;;;;;;;21.13;13.23;;;;;;;25.17;54.51;98983.69;5039164;28;20040;-78
2021/08/07 06:54:07;;;;;;;21.73;12.32;;;;;;;25.44;53.58;98978.72;5041415;28;20035;-82
2021/08/07 06:56:33;;;;;;;24.83;13.23;;;;;;;25.21;54.45;98987.63;5065256;28;20068;-77
2021/08/07 06:59:01;;;;;;;23.05;12.70;;;;;;;25.07;55.58;98994.28;5070921;28;20063;-75
2021/08/07 07:01:26;;;;;;;24.23;12.45;;;;;;;25.18;54.64;98996.19;5081618;28;20082;-78
2021/08/07 07:03:52;;;;;;;26.10;13.25;;;;;;;25.18;55.35;99007.00;5096065;28;20482;-78
2021/08/07 07:06:19;;;;;;;27.75;12.23;;;;;;;25.35;55.02;99008.00;5090785;28;20105;-78
2021/08/07 07:08:45;;;;;;;25.73;11.80;;;;;;;24.96;55.47;99023.75;5055900;28;20488;-81
2021/08/07 07:11:14;;;;;;;17.42;11.55;;;;;;;24.62;56.12;99049.53;5073609;28;20127;-76
2021/08/07 07:13:40;;;;;;;23.45;12.40;;;;;;;24.20;57.83;99047.47;5056943;28;20139;-78
2021/08/07 07:16:06;;;;;;;23.10;12.20;;;;;;;24.09;58.45;99048.22;5091852;28;20503;-75
2021/08/07 07:18:33;;;;;;;19.27;11.73;;;;;;;23.91;58.94;99041.69;5073288;28;20122;-82
2021/08/07 07:20:58;;;;;;;30.30;11.98;;;;;;;23.72;60.17;99059.72;5073163;28;20374;-78
2021/08/07 07:23:24;;;;;;;23.90;12.45;;;;;;;23.58;60.84;99048.22;5091257;28;20044;-79
2021/08/07 07:25:52;;;;;;;27.90;13.27;;;;;;;23.56;61.61;99043.03;5073485;28;20556;-81
2021/08/07 07:28:18;;;;;;;24.17;12.38;;;;;;;23.68;61.38;99045.03;5073644;28;20202;-79
2021/08/07 07:30:45;;;;;;;22.10;11.90;;;;;;;24.43;58.89;99054.94;5073369;28;20093;-77
2021/08/07 07:33:12;;;;;;;19.33;10.88;;;;;;;25.87;54.92;99057.22;5073183;28;20040;-77
2021/08/07 07:35:38;;;;;;;129.82;82.03;;;;;;;25.71;53.77;99064.13;5069729;28;20476;-80
2021/08/07 07:38:04;;;;;;;18.45;10.88;;;;;;;25.37;55.13;99070.06;5062956;28;20124;-78
2021/08/07 07:40:30;;;;;;;21.60;11.23;;;;;;;24.80;56.28;99102.81;5070414;28;20119;-78
2021/08/07 07:42:56;;;;;;;19.75;10.90;;;;;;;24.52;57.99;99099.56;5071742;28;20048;-78
2021/08/07 07:45:22;;;;;;;18.88;10.70;;;;;;;24.22;58.08;99102.97;5071374;28;20126;-79
2021/08/07 07:47:48;;;;;;;23.88;10.80;;;;;;;24.22;59.20;99119.19;5071736;28;20044;-81
2021/08/07 07:50:14;;;;;;;22.00;11.35;;;;;;;24.20;58.46;99132.09;5055531;28;20036;-79
2021/08/07 07:52:45;;;;;;;22.73;11.30;;;;;;;24.09;59.43;99131.97;5074533;28;20055;-77
2021/08/07 07:55:11;;;;;;;17.73;10.50;;;;;;;24.11;58.81;99124.47;5093478;28;20126;-79
2021/08/07 07:57:40;;;;;;;21.42;10.40;;;;;;;23.79;59.61;99119.06;5094501;28;20067;-76
2021/08/07 08:00:08;;;;;;;21.95;10.90;;;;;;;23.63;60.62;99121.25;5077341;28;20389;-80
2021/08/07 08:02:45;;;;;;;26.08;11.00;;;;;;;23.45;60.84;99102.28;5094789;28;20496;-79
2021/08/07 08:05:14;;;;;;;21.88;10.93;;;;;;;23.31;61.22;99094.25;5060255;28;20100;-80
2021/08/07 08:07:42;;;;;;;25.25;11.93;;;;;;;23.13;61.72;99099.50;5076452;28;20039;-75
2021/08/07 08:10:15;;;;;;;24.35;11.70;;;;;;;23.02;62.60;99104.53;5059553;28;20063;-79
2021/08/07 08:12:47;;;;;;;24.52;11.35;;;;;;;22.93;63.07;99108.53;5025298;28;20142;-77
2021/08/07 08:15:13;;;;;;;27.45;12.20;;;;;;;22.93;64.05;99089.66;5076059;28;20127;-78
2021/08/07 08:17:42;;;;;;;26.33;12.68;;;;;;;22.92;64.86;99085.28;5076913;28;20048;-78
2021/08/07 08:20:10;;;;;;;29.17;12.70;;;;;;;22.96;64.85;99077.59;5060044;28;20051;-77
2021/08/07 08:22:37;;;;;;;27.05;14.52;;;;;;;23.05;64.37;99065.50;5076739;28;20433;-76
2021/08/07 08:25:06;;;;;;;26.90;11.48;;;;;;;23.15;63.28;99051.56;5043007;28;20051;-81
2021/08/07 08:27:33;;;;;;;23.30;11.68;;;;;;;23.61;62.82;99041.53;5076621;28;20043;-77
2021/08/07 08:29:59;;;;;;;24.77;12.25;;;;;;;24.14;62.59;99049.22;5076425;28;20126;-77
2021/08/07 08:32:26;;;;;;;24.67;11.52;;;;;;;24.38;60.16;99042.09;5076176;28;20043;-78
2021/08/07 08:34:51;;;;;;;21.90;12.25;;;;;;;24.66;60.32;99029.13;5076566;28;20131;-80
2021/08/07 08:37:20;;;;;;;22.77;12.30;;;;;;;25.53;57.93;99017.13;5076545;28;20044;-77
2021/08/07 08:39:46;;;;;;;26.80;12.60;;;;;;;26.86;54.18;99009.53;5076271;28;20047;-81
2021/08/07 08:42:15;;;;;;;20.80;12.65;;;;;;;26.73;55.04;99026.84;5076592;28;20079;-78
2021/08/07 08:44:41;;;;;;;24.08;13.43;;;;;;;27.07;54.85;99019.69;5076259;28;20071;-80
2021/08/07 08:47:13;;;;;;;23.02;12.93;;;;;;;28.20;51.59;99018.03;5076531;28;20040;-78
2021/08/07 08:49:39;;;;;;;22.77;12.75;;;;;;;29.44;48.07;99011.28;5059667;28;20040;-79
2021/08/07 08:52:05;;;;;;;24.38;12.38;;;;;;;29.41;47.76;99000.94;5093872;28;20527;-77
2021/08/07 08:54:31;;;;;;;28.23;13.15;;;;;;;29.53;47.24;99004.28;5076150;28;20176;-82
2021/08/07 08:56:57;;;;;;;17.73;11.85;;;;;;;29.23;48.68;99001.28;5060042;28;20047;-81
2021/08/07 08:59:24;;;;;;;;;;;;;;;28.69;49.15;99000.19;5060334;28;20050;-80
2021/08/07 09:01:53;;;;;;;20.45;11.27;;;;;;;28.24;49.80;99011.00;5059697;28;19916;-77
2021/08/07 09:04:20;;;;;;;22.45;12.40;;;;;;;28.64;50.15;99013.69;5075127;28;20040;-81
2021/08/07 09:06:45;;;;;;;28.48;12.75;;;;;;;28.76;49.87;99011.66;5075080;28;20044;-80
2021/08/07 09:09:13;;;;;;;23.00;11.27;;;;;;;28.60;49.63;99013.38;5060139;28;20047;-82
2021/08/07 09:11:53;;;;;;;21.27;11.82;;;;;;;27.98;50.15;99025.31;5059718;28;20048;-82
2021/08/07 09:14:25;;;;;;;17.73;10.98;;;;;;;27.58;50.57;99019.78;5058681;28;20060;-76
2021/08/07 09:16:58;;;;;;;18.15;10.35;;;;;;;26.99;50.79;99046.38;5075224;28;20055;-78
2021/08/07 09:19:46;;;;;;;18.77;10.60;;;;;;;26.62;52.13;99067.34;5075928;28;20093;-78
2021/08/07 09:22:24;;;;;;;18.85;10.77;;;;;;;26.28;52.96;99059.03;5075884;28;20048;-80
2021/08/07 09:25:10;;;;;;;21.83;11.70;;;;;;;26.09;54.21;99065.63;5075344;28;20040;-80
2021/08/07 09:27:45;;;;;;;23.42;12.70;;;;;;;25.98;54.85;99072.66;5075670;28;20058;-76
2021/08/07 09:30:18;;;;;;;19.67;10.50;;;;;;;26.20;54.48;99062.09;5075330;28;20051;-77
2021/08/07 09:32:54;;;;;;;20.08;11.45;;;;;;;26.29;54.43;99057.13;5074969;28;20055;-79
2021/08/07 09:35:26;;;;;;;23.75;11.90;;;;;;;26.10;55.79;99064.56;5058970;28;20051;-77
2021/08/07 09:38:21;;;;;;;20.58;12.18;;;;;;;25.80;56.48;99060.03;5042246;28;20042;-81
2021/08/07 09:41:05;;;;;;;28.42;13.45;;;;;;;25.67;56.52;99064.63;5059521;28;20088;-80
2021/08/07 09:43:48;;;;;;;25.67;12.30;;;;;;;25.64;57.14;99065.06;5059691;28;20469;-81
2021/08/07 09:46:17;;;;;;;22.70;11.85;;;;;;;25.80;56.55;99068.16;5093153;28;20048;-80
2021/08/07 09:48:52;;;;;;;23.98;12.80;;;;;;;25.88;56.45;99054.25;5059444;28;20044;-76
2021/08/07 09:51:31;;;;;;;25.23;12.82;;;;;;;25.88;56.83;99043.41;5059480;28;20111;-76
2021/08/07 09:54:22;;;;;;;21.75;12.02;;;;;;;25.79;55.98;99036.72;5092258;28;20048;-79
2021/08/07 09:56:53;;;;;;;24.15;11.73;;;;;;;25.79;56.62;99037.53;5059712;28;20063;-80
2021/08/07 09:59:26;;;;;;;17.00;10.85;;;;;;;25.77;56.42;99041.53;5075574;28;20077;-79
2021/08/07 10:01:54;;;;;;;16.77;10.15;;;;;;;25.80;55.90;99047.31;5063365;28;20379;-78
2021/08/07 10:04:23;;;;;;;17.92;10.48;;;;;;;25.92;55.40;99055.47;5070644;28;20447;-76
2021/08/07 10:07:07;;;;;;;19.70;10.95;;;;;;;26.85;53.34;99056.72;5071867;28;20534;-77
2021/08/07 10:09:36;;;;;;;29.80;11.38;;;;;;;27.39;52.32;99050.94;5055333;28;20044;-79
2021/08/07 10:12:07;;;;;;;16.48;11.00;;;;;;;27.29;50.71;99055.13;5038408;28;20444;-81
2021/08/07 10:14:37;;;;;;;21.90;11.30;;;;;;;28.11;49.21;99059.50;5070619;28;20139;-80
2021/08/07 10:17:04;;;;;;;23.42;11.95;;;;;;;28.46;48.86;99064.59;5070724;28;20045;-80
2021/08/07 10:19:31;;;;;;;23.83;11.18;;;;;;;29.39;46.49;99065.75;5037878;28;20045;-75
2021/08/07 10:22:01;;;;;;;21.92;11.63;;;;;;;29.53;45.21;99074.31;5071000;28;20576;-78
2021/08/07 10:24:30;;;;;;;24.40;10.68;;;;;;;30.20;43.66;99084.97;5055269;28;20048;-78
2021/08/07 10:26:58;;;;;;;19.90;11.63;;;;;;;30.80;41.38;99078.19;5037657;28;20044;-73
2021/08/07 10:29:29;;;;;;;19.30;9.82;;;;;;;30.99;40.10;99088.66;5021122;28;20041;-78
2021/08/07 10:31:56;;;;;;;21.85;10.00;;;;;;;30.30;41.85;99085.03;5070744;28;20049;-78
2021/08/07 10:34:22;;;;;;;20.33;9.53;;;;;;;29.70;43.21;99085.91;5038074;28;20151;-82
2021/08/07 10:36:49;;;;;;;;;;;;;;;30.13;40.96;99090.63;5021789;28;20040;-79
2021/08/07 10:39:15;;;;;;;20.73;9.13;;;;;;;30.08;41.54;99094.13;5038395;28;19920;-79
2021/08/07 10:41:42;;;;;;;18.05;9.55;;;;;;;29.59;42.14;99081.47;5037623;28;20520;-77
2021/08/07 10:44:10;;;;;;;18.60;9.23;;;;;;;29.05;43.34;99084.97;5072428;28;20047;-78
2021/08/07 10:46:37;;;;;;;21.98;10.93;;;;;;;28.66;45.25;99085.84;5054328;28;20079;-80
2021/08/07 10:49:02;;;;;;;24.83;10.57;;;;;;;28.53;45.96;99076.13;5037407;28;20076;-81
2021/08/07 10:51:33;;;;;;;24.00;13.93;;;;;;;28.39;47.13;99069.41;5054588;28;20050;-78
2021/08/07 10:54:30;;;;;;;41.45;17.85;;;;;;;28.23;46.79;99052.06;5073049;28;20041;-78
2021/08/07 10:56:56;;;;;;;40.15;20.08;;;;;;;27.88;47.73;99075.69;4995213;28;20130;-80
2021/08/07 10:59:26;;;;;;;54.13;25.80;;;;;;;27.61;47.69;99078.22;4974770;28;20034;-78
2021/08/07 11:01:56;;;;;;;40.53;18.23;;;;;;;27.51;48.20;99078.88;4978719;28;20467;-79
2021/08/07 11:04:35;;;;;;;21.05;10.75;;;;;;;27.28;48.59;99072.47;5009278;28;20048;-78
2021/08/07 11:07:04;;;;;;;20.52;10.02;;;;;;;26.99;49.92;99087.09;4983118;28;20076;-78
2021/08/07 11:09:31;;;;;;;22.75;10.38;;;;;;;26.80;51.45;99101.69;5006162;28;20038;-77
2021/08/07 11:12:07;;;;;;;21.58;10.45;;;;;;;26.66;51.09;99104.88;5004834;28;20050;-81
2021/08/07 11:14:36;;;;;;;17.05;10.10;;;;;;;26.58;51.10;99093.31;4999195;28;20111;-77
2021/08/07 11:17:04;;;;;;;55.45;27.27;;;;;;;26.75;50.88;99070.88;5001283;28;20049;-78
2021/08/07 11:19:59;;;;;;;30.27;15.57;;;;;;;26.99;55.22;99073.53;5000139;28;20048;-77
2021/08/07 11:22:32;;;;;;;29.48;16.08;;;;;;;26.95;56.09;99065.88;5004317;28;20129;-78
2021/08/07 11:24:59;;;;;;;28.13;16.83;;;;;;;27.02;56.11;99067.63;4985380;28;20042;-80
2021/08/07 11:27:55;;;;;;;28.83;15.88;;;;;;;27.08;55.43;99072.91;5006435;28;20054;-78
2021/08/07 11:30:39;;;;;;;39.03;13.00;;;;;;;26.94;53.02;99076.97;5008906;28;20125;-77